Time;durP1;ratioP1;P1;durP2;ratioP2;P2;SDS_P1;SDS_P2;PMS_P1;PMS_P2;Temp;Humidity;BMP_temperature;BMP_pressure;BME280_temperature;BME280_humidity;BME280_pressure;Samples;Min_cycle;Max_cycle;Signal;HPM_P1;HPM_P2
2022/10/21 00:00:13;;;;;;;;;;;17.30;99.90;;;;;;5049966;28;19946;-83
2022/10/21 00:02:39;;;;;;;;;;;17.30;99.90;;;;;;5053775;28;20002;-82
2022/10/21 00:05:04;;;;;;;;;;;17.30;99.90;;;;;;5051802;28;19960;-83
2022/10/21 00:07:30;;;;;;;;;;;17.30;99.90;;;;;;5051436;28;19924;-83
2022/10/21 00:09:55;;;;;;;;;;;17.30;99.90;;;;;;5050505;28;19917;-83
2022/10/21 00:12:21;;;;;;;;;;;17.30;99.90;;;;;;5032899;28;20016;-83
2022/10/21 00:14:46;;;;;;;;;;;17.40;99.90;;;;;;5032879;28;19927;-83
2022/10/21 00:17:12;;;;;;;;;;;17.40;99.90;;;;;;5050635;28;20335;-82
2022/10/21 00:19:38;;;;;;;;;;;17.30;99.90;;;;;;5034386;28;19916;-81
2022/10/21 00:22:04;;;;;;;;;;;17.30;99.90;;;;;;5033099;28;20012;-82
2022/10/21 00:24:29;;;;;;;;;;;17.20;99.90;;;;;;5053521;28;19980;-81
2022/10/21 00:26:55;;;;;;;;;;;17.20;99.90;;;;;;5051071;28;19917;-82
2022/10/21 00:29:21;;;;;;;;;;;17.30;99.90;;;;;;5040227;28;19921;-81
2022/10/21 00:31:46;;;;;;;;;;;17.30;99.90;;;;;;5052718;28;19987;-82
2022/10/21 00:34:12;;;;;;;;;;;17.40;99.90;;;;;;5050572;28;20367;-82
2022/10/21 00:36:37;;;;;;;;;;;17.30;99.90;;;;;;5051053;28;20356;-82
2022/10/21 00:39:03;;;;;;;;;;;17.40;99.90;;;;;;5055937;28;19963;-82
2022/10/21 00:41:28;;;;;;;;;;;17.40;99.90;;;;;;5057381;28;19917;-82
2022/10/21 00:44:04;;;;;;;;;;;17.40;99.90;;;;;;5030750;28;19917;-82
2022/10/21 00:46:36;;;;;;;;;;;17.40;99.90;;;;;;5038757;28;19916;-81
2022/10/21 00:49:05;;;;;;;;;;;17.40;99.90;;;;;;5050038;28;19920;-82
2022/10/21 00:51:31;;;;;;;;;;;17.40;99.90;;;;;;5048043;28;20011;-83
2022/10/21 00:53:57;;;;;;;;;;;17.40;99.90;;;;;;5039899;28;19980;-83
2022/10/21 00:56:26;;;;;;;;;;;17.30;99.90;;;;;;5055431;28;19927;-83
2022/10/21 00:58:53;;;;;;;;;;;17.30;99.90;;;;;;5032414;28;19912;-83
2022/10/21 01:01:18;;;;;;;;;;;17.40;99.90;;;;;;5031867;28;19959;-82
2022/10/21 01:03:44;;;;;;;;;;;17.40;99.90;;;;;;5053537;28;19955;-83
2022/10/21 01:06:11;;;;;;;;;;;17.40;99.90;;;;;;5051508;28;20135;-82
2022/10/21 01:08:37;;;;;;;;;;;17.50;99.90;;;;;;5036709;28;20351;-82
2022/10/21 01:11:03;;;;;;;;;;;17.40;99.90;;;;;;5048773;28;20001;-83
2022/10/21 01:13:35;;;;;;;;;;;17.40;99.90;;;;;;5052250;28;19913;-83
2022/10/21 01:16:06;;;;;;;;;;;17.30;99.90;;;;;;5054421;28;19916;-83
2022/10/21 01:18:48;;;;;;;;;;;17.30;99.90;;;;;;5046535;28;19913;-81
2022/10/21 01:21:22;;;;;;;;;;;17.30;99.90;;;;;;5044578;28;20705;-81
2022/10/21 01:23:48;;;;;;;;;;;17.30;99.90;;;;;;5037689;28;19917;-81
2022/10/21 01:26:28;;;;;;;;;;;17.30;99.90;;;;;;5036701;28;19939;-81
2022/10/21 01:28:57;;;;;;;;;;;17.30;99.90;;;;;;5056101;28;19916;-82
2022/10/21 01:31:35;;;;;;;;;;;17.30;99.90;;;;;;5031849;28;19913;-82
2022/10/21 01:34:17;;;;;;;;;;;17.40;99.90;;;;;;5020921;28;19998;-82
2022/10/21 01:36:53;;;;;;;;;;;17.40;99.90;;;;;;5023418;28;19988;-82
2022/10/21 01:39:26;;;;;;;;;;;17.30;99.90;;;;;;5051702;28;19955;-82
2022/10/21 01:42:04;;;;;;;;;;;17.40;99.90;;;;;;5045155;28;20461;-82
2022/10/21 01:44:34;;;;;;;;;;;17.40;99.90;;;;;;5030527;28;19939;-83
2022/10/21 01:47:05;;;;;;;;;;;17.40;99.90;;;;;;5058022;28;20356;-82
2022/10/21 01:49:39;;;;;;;;;;;17.50;99.90;;;;;;5050687;28;19912;-81
2022/10/21 01:52:05;;;;;;;;;;;17.50;99.90;;;;;;5050978;28;19916;-82
2022/10/21 01:54:33;;;;;;;;;;;17.60;99.90;;;;;;5059731;28;19912;-83
2022/10/21 01:57:00;;;;;;;;;;;17.50;99.90;;;;;;5041441;28;20338;-83
2022/10/21 01:59:27;;;;;;;;;;;17.50;99.90;;;;;;5054738;28;20668;-83
2022/10/21 02:01:54;;;;;;;;;;;17.50;99.90;;;;;;5051077;28;19917;-82
2022/10/21 02:04:19;;;;;;;;;;;17.50;99.90;;;;;;5029196;28;19917;-83
2022/10/21 02:06:45;;;;;;;;;;;17.50;99.90;;;;;;5046412;28;19923;-83
2022/10/21 02:09:10;;;;;;;;;;;17.50;99.90;;;;;;5049113;28;19913;-83
2022/10/21 02:11:37;;;;;;;;;;;17.60;99.90;;;;;;5031182;28;19959;-83
2022/10/21 02:14:41;;;;;;;;;;;17.50;99.90;;;;;;5056884;28;20521;-83
2022/10/21 02:17:09;;;;;;;;;;;17.50;99.90;;;;;;4967882;28;19930;-83
2022/10/21 02:19:35;;;;;;;;;;;17.50;99.90;;;;;;4960215;28;19922;-82
2022/10/21 02:22:01;;;;;;;;;;;17.50;99.90;;;;;;5002711;28;19920;-83
2022/10/21 02:24:46;;;;;;;;;;;17.50;99.90;;;;;;5029726;28;20826;-82
2022/10/21 02:27:11;;;;;;;;;;;17.50;99.90;;;;;;5037236;28;20662;-82
2022/10/21 02:29:39;;;;;;;;;;;17.60;99.90;;;;;;5030922;28;19920;-83
2022/10/21 02:32:16;;;;;;;;;;;17.60;99.90;;;;;;5048614;28;19924;-83
2022/10/21 02:34:42;;;;;;;;;;;17.60;99.90;;;;;;5031002;28;19916;-83
2022/10/21 02:37:13;;;;;;;;;;;17.70;99.90;;;;;;5029839;28;19927;-83
2022/10/21 02:40:00;;;;;;;;;;;17.60;99.90;;;;;;5026805;28;19917;-82
2022/10/21 02:42:31;;;;;;;;;;;17.60;99.90;;;;;;5047886;28;19917;-82
2022/10/21 02:44:58;;;;;;;;;;;17.60;99.90;;;;;;5052274;28;20429;-82
2022/10/21 02:47:24;;;;;;;;;;;17.60;99.90;;;;;;5049109;28;20661;-82
2022/10/21 02:49:50;;;;;;;;;;;17.60;99.90;;;;;;5048119;28;20487;-81
2022/10/21 02:52:15;;;;;;;;;;;17.60;99.90;;;;;;5048792;28;19952;-82
2022/10/21 02:54:41;;;;;;;;;;;17.60;99.90;;;;;;5048161;28;19916;-82
2022/10/21 02:57:06;;;;;;;;;;;17.60;99.90;;;;;;5049594;28;19920;-82
2022/10/21 02:59:32;;;;;;;;;;;17.60;99.90;;;;;;5051704;28;19912;-82
2022/10/21 03:01:58;;;;;;;;;;;17.60;99.90;;;;;;5063859;28;20402;-82
2022/10/21 03:04:23;;;;;;;;;;;17.70;99.90;;;;;;5044659;28;19924;-82
2022/10/21 03:06:49;;;;;;;;;;;17.70;99.90;;;;;;5056188;28;19923;-83
2022/10/21 03:09:14;;;;;;;;;;;17.60;99.90;;;;;;5030363;28;19921;-82
2022/10/21 03:11:40;;;;;;;;;;;17.60;99.90;;;;;;5040051;28;19956;-83
2022/10/21 03:14:05;;;;;;;;;;;17.50;99.90;;;;;;5047969;28;19966;-82
2022/10/21 03:16:31;;;;;;;;;;;17.60;99.90;;;;;;5057775;28;20008;-83
2022/10/21 03:18:56;;;;;;;;;;;17.60;99.90;;;;;;5030570;28;20388;-82
2022/10/21 03:21:22;;;;;;;;;;;17.60;99.90;;;;;;5036236;28;20047;-83
2022/10/21 03:23:47;;;;;;;;;;;17.60;99.90;;;;;;5054156;28;20007;-82
2022/10/21 03:26:13;;;;;;;;;;;17.60;99.90;;;;;;5050264;28;19956;-83
2022/10/21 03:28:38;;;;;;;;;;;17.60;99.90;;;;;;5048428;28;19917;-81
2022/10/21 03:31:04;;;;;;;;;;;17.60;99.90;;;;;;5056304;28;20011;-83
2022/10/21 03:33:29;;;;;;;;;;;17.60;99.90;;;;;;5047836;28;19920;-83
2022/10/21 03:35:55;;;;;;;;;;;17.60;99.90;;;;;;5042032;28;19924;-82
2022/10/21 03:38:21;;;;;;;;;;;17.60;99.90;;;;;;5028917;28;20355;-83
2022/10/21 03:40:46;;;;;;;;;;;17.60;99.90;;;;;;5049486;28;19921;-82
2022/10/21 03:43:12;;;;;;;;;;;17.60;99.90;;;;;;5047102;28;19916;-83
2022/10/21 03:45:37;;;;;;;;;;;17.70;99.90;;;;;;5056312;28;19936;-82
2022/10/21 03:48:03;;;;;;;;;;;17.70;99.90;;;;;;5029961;28;20375;-82
2022/10/21 03:50:28;;;;;;;;;;;17.70;99.90;;;;;;5047607;28;19917;-81
2022/10/21 03:52:54;;;;;;;;;;;17.70;99.90;;;;;;5048121;28;19936;-83
2022/10/21 03:55:22;;;;;;;;;;;17.50;99.90;;;;;;5057295;28;19917;-82
2022/10/21 03:57:48;;;;;;;;;;;17.50;99.90;;;;;;5047901;28;20375;-82
2022/10/21 04:00:14;;;;;;;;;;;17.40;99.90;;;;;;5049641;28;20075;-82
2022/10/21 04:02:40;;;;;;;;;;;17.40;99.90;;;;;;5060316;28;20713;-82
2022/10/21 04:05:06;;;;;;;;;;;17.50;99.90;;;;;;5047190;28;19916;-83
2022/10/21 04:07:31;;;;;;;;;;;17.50;99.90;;;;;;5047148;28;19913;-83
2022/10/21 04:09:57;;;;;;;;;;;17.50;99.90;;;;;;5046033;28;19924;-84
2022/10/21 04:12:22;;;;;;;;;;;17.60;99.90;;;;;;5046098;28;19916;-83
2022/10/21 04:14:48;;;;;;;;;;;17.50;99.90;;;;;;5044692;28;19924;-82
2022/10/21 04:17:13;;;;;;;;;;;17.50;99.90;;;;;;5029539;28;19920;-82
2022/10/21 04:19:39;;;;;;;;;;;17.50;99.90;;;;;;5048130;28;20390;-83
2022/10/21 04:22:04;;;;;;;;;;;17.50;99.90;;;;;;5059083;28;20002;-83
2022/10/21 04:24:30;;;;;;;;;;;17.60;99.90;;;;;;5028422;28;19975;-82
2022/10/21 04:26:55;;;;;;;;;;;17.60;99.90;;;;;;5054505;28;19924;-82
2022/10/21 04:29:21;;;;;;;;;;;17.60;99.90;;;;;;5047190;28;19984;-83
2022/10/21 04:31:46;;;;;;;;;;;17.60;99.90;;;;;;5046256;28;19925;-82
2022/10/21 04:34:12;;;;;;;;;;;17.60;99.90;;;;;;5028602;28;19920;-84
2022/10/21 04:36:38;;;;;;;;;;;17.70;99.90;;;;;;5030192;28;19920;-83
2022/10/21 04:39:03;;;;;;;;;;;17.60;99.90;;;;;;5024489;28;19917;-82
2022/10/21 04:41:29;;;;;;;;;;;17.50;99.90;;;;;;5030273;28;19924;-86
2022/10/21 04:43:54;;;;;;;;;;;17.40;99.90;;;;;;5048926;28;19967;-86
2022/10/21 04:46:20;;;;;;;;;;;17.30;99.90;;;;;;5050716;28;20795;-87
2022/10/21 04:48:46;;;;;;;;;;;17.20;99.90;;;;;;5060421;28;19920;-88
2022/10/21 04:51:11;;;;;;;;;;;17.20;99.90;;;;;;5032643;28;20031;-86
2022/10/21 04:53:37;;;;;;;;;;;17.10;99.90;;;;;;5051238;28;19920;-88
2022/10/21 04:56:02;;;;;;;;;;;17.20;99.90;;;;;;5050270;28;19913;-86
2022/10/21 04:58:28;;;;;;;;;;;17.20;99.90;;;;;;5063099;28;19923;-88
2022/10/21 05:00:53;;;;;;;;;;;17.20;99.90;;;;;;5051169;28;20382;-85
2022/10/21 05:03:19;;;;;;;;;;;17.20;99.90;;;;;;5050295;28;19919;-88
2022/10/21 05:05:47;;;;;;;;;;;17.20;99.90;;;;;;5050002;28;20662;-84
2022/10/21 05:08:13;;;;;;;;;;;17.10;99.90;;;;;;5051086;28;19920;-87
2022/10/21 05:10:38;;;;;;;;;;;17.10;99.90;;;;;;5048337;28;19946;-84
2022/10/21 05:13:04;;;;;;;;;;;17.10;99.90;;;;;;5048707;28;20573;-85
2022/10/21 05:15:30;;;;;;;;;;;17.20;99.90;;;;;;5030985;28;19916;-83
2022/10/21 05:17:56;;;;;;;;;;;17.20;99.90;;;;;;5049026;28;19921;-85
2022/10/21 05:20:21;;;;;;;;;;;17.20;99.90;;;;;;5049703;28;20016;-86
2022/10/21 05:22:48;;;;;;;;;;;17.10;99.90;;;;;;5047591;28;20011;-84
2022/10/21 05:25:13;;;;;;;;;;;17.20;99.90;;;;;;5049725;28;19917;-85
2022/10/21 05:27:39;;;;;;;;;;;17.20;99.90;;;;;;5045524;28;19920;-86
2022/10/21 05:30:05;;;;;;;;;;;17.20;99.90;;;;;;5045941;28;20658;-85
2022/10/21 05:32:30;;;;;;;;;;;17.20;99.90;;;;;;5048902;28;19923;-86
2022/10/21 05:34:56;;;;;;;;;;;17.20;99.90;;;;;;5058925;28;20354;-87
2022/10/21 05:37:21;;;;;;;;;;;17.30;99.90;;;;;;5030143;28;19939;-87
2022/10/21 05:39:47;;;;;;;;;;;17.30;99.90;;;;;;5050506;28;19968;-87
2022/10/21 05:42:13;;;;;;;;;;;17.30;99.90;;;;;;5031283;28;20586;-87
2022/10/21 05:44:38;;;;;;;;;;;17.20;99.90;;;;;;5052298;28;19917;-86
2022/10/21 05:47:04;;;;;;;;;;;17.30;99.90;;;;;;5049582;28;19992;-84
2022/10/21 05:49:31;;;;;;;;;;;17.30;99.90;;;;;;5048788;28;19994;-85
2022/10/21 05:51:57;;;;;;;;;;;17.20;99.90;;;;;;5031377;28;19913;-85
2022/10/21 05:54:22;;;;;;;;;;;17.10;99.90;;;;;;5058229;28;19939;-89
2022/10/21 05:56:48;;;;;;;;;;;17.00;99.90;;;;;;5031643;28;19940;-87
2022/10/21 05:59:55;;;;;;;;;;;16.80;99.90;;;;;;5042224;28;20004;-88
2022/10/21 06:05:35;;;;;;;;;;;16.70;99.90;;;;;;4971372;28;19962;-88
2022/10/21 06:11:14;;;;;;;;;;;16.50;99.90;;;;;;4985419;28;20672;-84
2022/10/21 06:13:40;;;;;;;;;;;16.50;99.90;;;;;;5051955;28;20043;-82
2022/10/21 06:16:06;;;;;;;;;;;16.40;99.90;;;;;;5048369;28;19959;-82
2022/10/21 06:18:31;;;;;;;;;;;16.50;99.90;;;;;;5051696;28;19998;-82
2022/10/21 06:20:57;;;;;;;;;;;16.60;99.90;;;;;;5030462;28;19916;-83
2022/10/21 06:23:23;;;;;;;;;;;16.80;99.90;;;;;;5031029;28;19916;-84
2022/10/21 06:25:59;;;;;;;;;;;16.80;99.90;;;;;;5031470;28;19912;-83
2022/10/21 06:28:25;;;;;;;;;;;16.80;99.90;;;;;;5045126;28;20000;-84
2022/10/21 06:30:51;;;;;;;;;;;16.90;99.90;;;;;;5049107;28;19925;-83
2022/10/21 06:33:16;;;;;;;;;;;17.00;99.90;;;;;;5031067;28;19999;-84
2022/10/21 06:35:42;;;;;;;;;;;17.10;99.90;;;;;;5049050;28;19913;-85
2022/10/21 06:38:07;;;;;;;;;;;17.00;99.90;;;;;;5047517;28;19924;-83
2022/10/21 06:40:33;;;;;;;;;;;17.10;99.90;;;;;;5051121;28;19931;-82
2022/10/21 06:42:58;;;;;;;;;;;17.20;99.90;;;;;;5050099;28;19916;-82
2022/10/21 06:45:24;;;;;;;;;;;17.00;99.90;;;;;;5047844;28;19912;-82
2022/10/21 06:47:50;;;;;;;;;;;16.90;99.90;;;;;;5047469;28;19920;-82
2022/10/21 06:50:17;;;;;;;;;;;17.00;99.90;;;;;;5047776;28;19931;-82
2022/10/21 06:52:43;;;;;;;;;;;17.20;99.90;;;;;;5047891;28;19912;-82
2022/10/21 06:55:08;;;;;;;;;;;17.30;99.90;;;;;;5030081;28;19912;-82
2022/10/21 06:57:34;;;;;;;;;;;17.20;99.90;;;;;;5047893;28;19917;-82
2022/10/21 06:59:59;;;;;;;;;;;17.20;99.90;;;;;;5048424;28;19975;-82
2022/10/21 07:02:25;;;;;;;;;;;17.40;99.90;;;;;;5048507;28;20399;-82
2022/10/21 07:04:51;;;;;;;;;;;17.50;99.90;;;;;;5048448;28;20003;-82
2022/10/21 07:07:17;;;;;;;;;;;17.40;99.90;;;;;;5048283;28;19928;-82
2022/10/21 07:09:43;;;;;;;;;;;17.30;99.90;;;;;;5029946;28;20480;-82
2022/10/21 07:12:08;;;;;;;;;;;17.40;99.90;;;;;;5048723;28;19925;-82
2022/10/21 07:14:34;;;;;;;;;;;17.60;99.90;;;;;;5030757;28;20502;-82
2022/10/21 07:17:00;;;;;;;;;;;18.20;99.90;;;;;;5048347;28;19931;-82
2022/10/21 07:19:25;;;;;;;;;;;18.10;99.90;;;;;;5048342;28;19942;-82
2022/10/21 07:21:51;;;;;;;;;;;18.20;99.90;;;;;;5048082;28;19913;-82
2022/10/21 07:24:16;;;;;;;;;;;18.20;99.90;;;;;;5047885;28;19913;-82
2022/10/21 07:26:42;;;;;;;;;;;18.00;99.90;;;;;;5047490;28;20291;-82
2022/10/21 07:29:07;;;;;;;;;;;17.80;99.90;;;;;;5047346;28;19912;-82
2022/10/21 07:31:35;;;;;;;;;;;17.90;99.90;;;;;;5047898;28;19920;-83
2022/10/21 07:34:01;;;;;;;;;;;17.80;99.90;;;;;;5030310;28;19948;-83
2022/10/21 07:36:28;;;;;;;;;;;17.70;99.90;;;;;;5047442;28;19912;-82
2022/10/21 07:38:54;;;;;;;;;;;17.70;99.90;;;;;;5034310;28;20698;-82
2022/10/21 07:41:30;;;;;;;;;;;17.80;99.90;;;;;;5030043;28;19920;-82
2022/10/21 07:43:56;;;;;;;;;;;17.90;99.90;;;;;;5047573;28;19963;-82
2022/10/21 07:46:21;;;;;;;;;;;17.90;99.90;;;;;;5047643;28;19916;-82
2022/10/21 07:48:47;;;;;;;;;;;18.10;99.90;;;;;;5047280;28;19951;-81
2022/10/21 07:51:13;;;;;;;;;;;18.30;99.90;;;;;;5047728;28;20371;-82
2022/10/21 07:53:40;;;;;;;;;;;18.80;99.90;;;;;;5029487;28;20201;-82
2022/10/21 07:56:06;;;;;;;;;;;18.90;99.90;;;;;;5029213;28;19912;-81
2022/10/21 07:58:33;;;;;;;;;;;18.80;99.90;;;;;;5049716;28;19969;-82
2022/10/21 08:01:02;;;;;;;;;;;18.80;99.90;;;;;;5047705;28;19917;-82
2022/10/21 08:03:28;;;;;;;;;;;20.00;99.90;;;;;;5047550;28;20073;-82
2022/10/21 08:05:54;;;;;;;;;;;19.80;99.90;;;;;;5029880;28;19999;-81
2022/10/21 08:08:22;;;;;;;;;;;19.40;99.90;;;;;;5048024;28;19912;-82
2022/10/21 08:10:48;;;;;;;;;;;19.80;99.90;;;;;;5029317;28;19916;-82
2022/10/21 08:13:14;;;;;;;;;;;20.30;99.90;;;;;;5029193;28;19920;-82
2022/10/21 08:15:40;;;;;;;;;;;21.00;99.90;;;;;;5047462;28;19913;-82
2022/10/21 08:18:06;;;;;;;;;;;21.60;99.90;;;;;;5047299;28;19924;-82
2022/10/21 08:20:32;;;;;;;;;;;21.70;99.90;;;;;;5039702;28;19913;-82
2022/10/21 08:22:57;;;;;;;;;;;22.40;99.90;;;;;;5051822;28;19976;-82
2022/10/21 08:25:23;;;;;;;;;;;22.60;99.90;;;;;;5051297;28;19912;-82
2022/10/21 08:27:48;;;;;;;;;;;23.10;99.90;;;;;;5033474;28;19913;-82
2022/10/21 08:30:14;;;;;;;;;;;23.20;99.90;;;;;;5051384;28;19912;-82
2022/10/21 08:32:40;;;;;;;;;;;22.60;99.90;;;;;;5033668;28;20462;-82
2022/10/21 08:35:05;;;;;;;;;;;22.00;99.90;;;;;;5051168;28;19917;-83
2022/10/21 08:37:31;;;;;;;;;;;21.40;99.90;;;;;;5047751;28;19993;-82
2022/10/21 08:39:56;;;;;;;;;;;21.30;99.90;;;;;;5042155;28;20350;-82
2022/10/21 08:42:22;;;;;;;;;;;21.70;99.90;;;;;;5033238;28;19951;-83
2022/10/21 08:44:57;;;;;;;;;;;22.10;99.90;;;;;;5036600;28;19936;-83
2022/10/21 08:47:35;;;;;;;;;;;23.20;99.90;;;;;;5052902;28;19959;-82
2022/10/21 08:50:10;;;;;;;;;;;23.40;99.90;;;;;;5050721;28;19920;-82
2022/10/21 08:52:38;;;;;;;;;;;23.00;99.90;;;;;;5033531;28;20357;-82
2022/10/21 08:55:15;;;;;;;;;;;22.40;99.90;;;;;;5033156;28;19912;-82
2022/10/21 08:57:41;;;;;;;;;;;22.90;99.90;;;;;;5041092;28;19917;-82
2022/10/21 09:00:14;;;;;;;;;;;22.50;99.90;;;;;;5050130;28;19912;-82
2022/10/21 09:02:47;;;;;;;;;;;22.80;99.90;;;;;;5050545;28;20023;-83
2022/10/21 09:05:31;;;;;;;;;;;23.00;99.90;;;;;;5050625;28;19919;-83
2022/10/21 09:08:01;;;;;;;;;;;22.10;99.90;;;;;;5032884;28;20010;-82
2022/10/21 09:10:26;;;;;;;;;;;23.30;99.90;;;;;;5032708;28;19919;-83
2022/10/21 09:12:52;;;;;;;;;;;23.40;99.90;;;;;;5050052;28;20573;-83
2022/10/21 09:15:26;;;;;;;;;;;23.40;99.90;;;;;;5050615;28;19917;-83
2022/10/21 09:18:04;;;;;;;;;;;23.70;99.90;;;;;;5032708;28;19995;-83
2022/10/21 09:20:32;;;;;;;;;;;23.80;99.90;;;;;;5050264;28;19923;-82
2022/10/21 09:23:01;;;;;;;;;;;23.70;99.70;;;;;;5050466;28;20434;-82
2022/10/21 09:25:31;;;;;;;;;;;23.30;99.10;;;;;;5032801;28;19913;-83
2022/10/21 09:27:58;;;;;;;;;;;22.70;99.90;;;;;;5029474;28;19962;-83
2022/10/21 09:30:24;;;;;;;;;;;22.40;99.90;;;;;;5042273;28;19931;-82
2022/10/21 09:32:53;;;;;;;;;;;22.40;99.90;;;;;;5049616;28;19920;-83
2022/10/21 09:35:24;;;;;;;;;;;22.40;99.90;;;;;;5058851;28;19939;-83
2022/10/21 09:37:53;;;;;;;;;;;22.90;98.90;;;;;;5046416;28;20702;-83
2022/10/21 09:40:20;;;;;;;;;;;23.00;99.70;;;;;;5043388;28;19920;-83
2022/10/21 09:42:47;;;;;;;;;;;23.00;99.00;;;;;;5031552;28;19913;-82
2022/10/21 09:45:22;;;;;;;;;;;23.00;98.80;;;;;;5049833;28;20423;-82
2022/10/21 09:47:52;;;;;;;;;;;22.80;98.10;;;;;;5038442;28;20826;-83
2022/10/21 09:50:19;;;;;;;;;;;22.70;99.10;;;;;;5049943;28;19917;-82
2022/10/21 09:52:51;;;;;;;;;;;22.40;98.00;;;;;;5031899;28;19948;-83
2022/10/21 09:55:17;;;;;;;;;;;22.00;98.50;;;;;;5052400;28;20028;-83
2022/10/21 09:57:46;;;;;;;;;;;22.40;98.90;;;;;;5049470;28;19959;-83
2022/10/21 10:00:11;;;;;;;;;;;22.90;97.40;;;;;;5031533;28;19913;-82
2022/10/21 10:02:38;;;;;;;;;;;22.60;96.50;;;;;;5053393;28;19917;-82
2022/10/21 10:05:23;;;;;;;;;;;22.60;97.20;;;;;;5049307;28;19912;-83
2022/10/21 10:07:48;;;;;;;;;;;22.60;98.00;;;;;;5042973;28;20334;-83
2022/10/21 10:10:28;;;;;;;;;;;22.00;99.90;;;;;;5048544;28;19917;-83
2022/10/21 10:12:54;;;;;;;;;;;22.00;99.90;;;;;;5048361;28;20195;-82
2022/10/21 10:15:28;;;;;;;;;;;22.10;99.90;;;;;;5030955;28;19913;-83
2022/10/21 10:17:55;;;;;;;;;;;22.00;99.90;;;;;;5049035;28;19921;-84
2022/10/21 10:20:21;;;;;;;;;;;21.90;99.90;;;;;;5055633;28;19909;-82
2022/10/21 10:23:08;;;;;;;;;;;22.40;99.90;;;;;;5030912;28;19913;-82
2022/10/21 10:25:35;;;;;;;;;;;23.20;99.90;;;;;;5030661;28;19971;-82
2022/10/21 10:28:02;;;;;;;;;;;23.50;99.90;;;;;;5031288;28;20004;-82
2022/10/21 10:30:35;;;;;;;;;;;23.50;99.90;;;;;;5048954;28;19909;-82
2022/10/21 10:33:05;;;;;;;;;;;23.50;98.90;;;;;;5049142;28;19912;-82
2022/10/21 10:35:31;;;;;;;;;;;23.50;95.80;;;;;;5044999;28;20380;-83
2022/10/21 10:37:58;;;;;;;;;;;23.60;95.80;;;;;;5041960;28;19917;-83
2022/10/21 10:40:32;;;;;;;;;;;23.80;96.00;;;;;;5043839;28;19952;-83
2022/10/21 10:43:13;;;;;;;;;;;23.90;95.40;;;;;;5048799;28;19917;-83
2022/10/21 10:45:46;;;;;;;;;;;23.90;96.00;;;;;;5028620;28;19920;-83
2022/10/21 10:48:18;;;;;;;;;;;24.00;94.70;;;;;;5048953;28;19913;-83
2022/10/21 10:50:44;;;;;;;;;;;23.70;93.20;;;;;;5048893;28;19924;-82
2022/10/21 10:53:09;;;;;;;;;;;23.40;95.00;;;;;;5049386;28;19913;-83
2022/10/21 10:55:41;;;;;;;;;;;23.20;94.20;;;;;;5048970;28;20466;-83
2022/10/21 10:58:07;;;;;;;;;;;22.80;92.20;;;;;;5032735;28;20344;-83
2022/10/21 11:00:35;;;;;;;;;;;22.40;92.50;;;;;;5051255;28;19941;-82
2022/10/21 11:03:09;;;;;;;;;;;22.50;93.60;;;;;;5049096;28;19920;-82
2022/10/21 11:05:46;;;;;;;;;;;22.60;95.00;;;;;;5031051;28;19956;-82
2022/10/21 11:08:14;;;;;;;;;;;22.70;96.00;;;;;;5030969;28;20605;-82
2022/10/21 11:10:48;;;;;;;;;;;22.90;97.20;;;;;;5045287;28;19996;-83
2022/10/21 11:13:16;;;;;;;;;;;23.30;97.60;;;;;;5035049;28;19939;-82
2022/10/21 11:15:48;;;;;;;;;;;23.60;94.30;;;;;;5029080;28;19920;-83
2022/10/21 11:18:17;;;;;;;;;;;23.50;94.30;;;;;;5058432;28;19956;-82
2022/10/21 11:20:54;;;;;;;;;;;23.30;93.00;;;;;;5030760;28;19963;-83
2022/10/21 11:23:20;;;;;;;;;;;23.60;93.00;;;;;;5048181;28;19999;-80
2022/10/21 11:26:12;;;;;;;;;;;23.70;93.20;;;;;;5031416;28;19980;-81
2022/10/21 11:28:42;;;;;;;;;;;23.70;92.60;;;;;;5043352;28;19999;-80
2022/10/21 11:31:15;;;;;;;;;;;23.40;92.60;;;;;;5054820;28;19932;-80
2022/10/21 11:33:50;;;;;;;;;;;23.10;92.90;;;;;;5047812;28;20304;-80
2022/10/21 11:36:16;;;;;;;;;;;22.90;92.30;;;;;;5047535;28;19919;-80
2022/10/21 11:38:41;;;;;;;;;;;22.70;91.80;;;;;;5035109;28;20415;-81
2022/10/21 11:41:16;;;;;;;;;;;22.70;91.60;;;;;;5048072;28;20423;-81
2022/10/21 11:43:59;;;;;;;;;;;22.70;92.40;;;;;;5030756;28;19919;-81
2022/10/21 11:46:38;;;;;;;;;;;22.80;92.60;;;;;;5048250;28;20664;-81
2022/10/21 11:49:03;;;;;;;;;;;22.50;91.40;;;;;;5047689;28;20379;-80
2022/10/21 11:51:41;;;;;;;;;;;22.60;89.40;;;;;;5047817;28;19983;-80
2022/10/21 11:54:25;;;;;;;;;;;22.60;90.20;;;;;;5046627;28;20059;-80
2022/10/21 11:56:55;;;;;;;;;;;22.60;91.00;;;;;;5029703;28;19916;-80
2022/10/21 11:59:24;;;;;;;;;;;22.40;90.20;;;;;;5038975;28;19942;-80
2022/10/21 12:01:55;;;;;;;;;;;22.70;90.80;;;;;;5051044;28;19912;-80
2022/10/21 12:04:21;;;;;;;;;;;23.10;93.10;;;;;;5029994;28;20372;-80
2022/10/21 12:07:01;;;;;;;;;;;23.30;92.00;;;;;;5047647;28;19939;-80
2022/10/21 12:09:39;;;;;;;;;;;23.30;90.90;;;;;;5047305;28;19995;-80
2022/10/21 12:12:09;;;;;;;;;;;23.10;90.00;;;;;;5029108;28;19924;-80
2022/10/21 12:14:47;;;;;;;;;;;23.00;86.60;;;;;;5029451;28;19912;-80
2022/10/21 12:17:16;;;;;;;;;;;23.00;90.10;;;;;;5047674;28;20007;-81
2022/10/21 12:19:44;;;;;;;;;;;23.10;90.50;;;;;;5047786;28;20008;-80
2022/10/21 12:22:11;;;;;;;;;;;23.10;91.70;;;;;;5047322;28;19912;-80
2022/10/21 12:24:48;;;;;;;;;;;23.20;92.20;;;;;;5053215;28;19966;-80
2022/10/21 12:27:32;;;;;;;;;;;23.40;92.20;;;;;;5029138;28;19943;-78
2022/10/21 12:30:01;;;;;;;;;;;23.40;90.80;;;;;;5029467;28;19977;-80
2022/10/21 12:32:45;;;;;;;;;;;23.30;90.70;;;;;;5047438;28;19913;-81
2022/10/21 12:35:12;;;;;;;;;;;23.40;91.00;;;;;;5047353;28;19913;-80
2022/10/21 12:37:42;;;;;;;;;;;23.50;89.70;;;;;;5042700;28;19917;-80
2022/10/21 12:40:12;;;;;;;;;;;23.60;90.70;;;;;;5039784;28;19960;-80
2022/10/21 12:42:43;;;;;;;;;;;23.50;92.00;;;;;;5046449;28;20318;-80
2022/10/21 12:45:29;;;;;;;;;;;23.30;90.00;;;;;;5043947;28;19913;-81
2022/10/21 12:47:55;;;;;;;;;;;23.20;90.20;;;;;;5036657;28;19913;-80
2022/10/21 12:50:27;;;;;;;;;;;23.10;90.90;;;;;;5046769;28;19928;-81
2022/10/21 12:53:11;;;;;;;;;;;23.20;90.80;;;;;;5047125;28;20435;-80
2022/10/21 12:55:39;;;;;;;;;;;23.40;91.30;;;;;;5046458;28;19962;-80
2022/10/21 12:58:13;;;;;;;;;;;23.50;90.10;;;;;;5049419;28;19917;-80
2022/10/21 13:00:42;;;;;;;;;;;23.40;91.00;;;;;;5032474;28;19916;-80
2022/10/21 13:03:11;;;;;;;;;;;23.10;86.10;;;;;;5047383;28;19921;-80
2022/10/21 13:05:37;;;;;;;;;;;23.20;88.20;;;;;;5047427;28;20008;-80
2022/10/21 13:08:27;;;;;;;;;;;23.10;89.70;;;;;;5049872;28;19975;-81
2022/10/21 13:11:01;;;;;;;;;;;23.00;89.50;;;;;;5049304;28;20017;-80
2022/10/21 13:13:32;;;;;;;;;;;23.10;90.00;;;;;;5046429;28;19917;-79
2022/10/21 13:15:59;;;;;;;;;;;22.80;89.90;;;;;;5043442;28;19987;-80
2022/10/21 13:18:43;;;;;;;;;;;23.00;88.10;;;;;;5050170;28;20745;-80
2022/10/21 13:21:21;;;;;;;;;;;22.90;88.00;;;;;;5050200;28;19948;-80
2022/10/21 13:23:49;;;;;;;;;;;23.00;90.70;;;;;;5056649;28;20007;-80
2022/10/21 13:26:18;;;;;;;;;;;23.00;90.80;;;;;;5050185;28;20481;-80
2022/10/21 13:28:55;;;;;;;;;;;23.00;90.60;;;;;;5050228;28;19912;-80
2022/10/21 13:31:20;;;;;;;;;;;23.10;90.10;;;;;;5044700;28;19940;-80
2022/10/21 13:33:53;;;;;;;;;;;22.90;89.60;;;;;;5057669;28;19912;-80
2022/10/21 13:36:39;;;;;;;;;;;22.70;87.50;;;;;;5057643;28;19917;-80
2022/10/21 13:39:29;;;;;;;;;;;22.70;86.60;;;;;;5031657;28;20443;-80
2022/10/21 13:42:03;;;;;;;;;;;22.70;86.30;;;;;;5031928;28;19944;-80
2022/10/21 13:44:32;;;;;;;;;;;22.70;87.30;;;;;;5045019;28;19912;-80
2022/10/21 13:46:57;;;;;;;;;;;22.40;87.20;;;;;;5049929;28;19913;-80
2022/10/21 13:49:27;;;;;;;;;;;22.50;86.80;;;;;;5032323;28;19913;-79
2022/10/21 13:51:53;;;;;;;;;;;22.50;86.50;;;;;;5031808;28;19920;-80
2022/10/21 13:54:18;;;;;;;;;;;22.30;87.90;;;;;;5032314;28;20382;-80
2022/10/21 13:56:44;;;;;;;;;;;21.90;91.80;;;;;;5049942;28;19920;-80
2022/10/21 13:59:35;;;;;;;;;;;21.60;93.70;;;;;;5049646;28;19927;-80
2022/10/21 14:02:02;;;;;;;;;;;21.20;94.90;;;;;;5042266;28;19913;-80
2022/10/21 14:04:29;;;;;;;;;;;21.00;94.20;;;;;;5049839;28;19923;-80
2022/10/21 14:06:57;;;;;;;;;;;21.00;94.70;;;;;;5049757;28;19966;-80
2022/10/21 14:09:43;;;;;;;;;;;21.00;95.00;;;;;;5049414;28;19914;-80
2022/10/21 14:12:18;;;;;;;;;;;20.90;94.80;;;;;;5049147;28;19939;-80
2022/10/21 14:14:44;;;;;;;;;;;20.80;95.80;;;;;;5049291;28;19983;-81
2022/10/21 14:17:17;;;;;;;;;;;20.40;98.50;;;;;;5049228;28;19921;-80
2022/10/21 14:19:46;;;;;;;;;;;20.30;99.10;;;;;;5048524;28;19998;-79
2022/10/21 14:22:16;;;;;;;;;;;18.40;99.90;;;;;;5031211;28;20364;-80
2022/10/21 14:24:43;;;;;;;;;;;17.50;99.90;;;;;;5035151;28;19920;-79
2022/10/21 14:27:15;;;;;;;;;;;17.60;99.90;;;;;;5031020;28;19963;-79
2022/10/21 14:29:42;;;;;;;;;;;18.20;99.90;;;;;;5042230;28;19916;-79
2022/10/21 14:32:11;;;;;;;;;;;17.60;99.90;;;;;;5033187;28;19913;-81